createdAt,value
2022-12-03T00:02:27.415Z,91.35
2022-12-03T00:05:32.695Z,96.88
2022-12-03T00:08:37.357Z,100.35
2022-12-03T00:11:42.093Z,102.03
2022-12-03T00:14:46.781Z,86.05
2022-12-03T00:17:51.681Z,94.20
2022-12-03T00:20:56.573Z,101.22
2022-12-03T00:24:01.682Z,101.25
2022-12-03T00:27:06.335Z,98.07
2022-12-03T00:30:12.153Z,108.43
2022-12-03T00:33:17.214Z,99.97
2022-12-03T00:36:21.969Z,99.82
2022-12-03T00:39:26.735Z,99.80
2022-12-03T00:42:31.712Z,98.60
2022-12-03T00:45:36.845Z,98.97
2022-12-03T00:48:41.724Z,104.45
2022-12-03T00:51:46.515Z,108.22
2022-12-03T00:54:51.840Z,106.45
2022-12-03T00:57:56.750Z,102.60
2022-12-03T01:01:01.847Z,100.90
2022-12-03T01:04:07.078Z,101.72
2022-12-03T01:07:11.902Z,116.63
2022-12-03T01:10:17.476Z,103.00
2022-12-03T01:13:22.541Z,106.18
2022-12-03T01:16:27.511Z,103.05
2022-12-03T01:19:33.904Z,109.38
2022-12-03T01:22:38.908Z,89.07
2022-12-03T01:25:43.895Z,101.10
2022-12-03T01:28:48.795Z,95.88
2022-12-03T01:32:12.627Z,95.78
2022-12-03T01:35:17.884Z,106.03
2022-12-03T01:38:22.713Z,101.28
2022-12-03T01:41:27.592Z,97.82
2022-12-03T01:44:34.756Z,96.85
2022-12-03T01:47:39.725Z,90.32
2022-12-03T01:50:45.195Z,88.13
2022-12-03T01:53:50.455Z,89.03
2022-12-03T01:56:55.686Z,77.78
2022-12-03T02:00:01.198Z,114.18
2022-12-03T02:03:18.928Z,98.80
2022-12-03T02:06:26.497Z,103.05
2022-12-03T02:09:31.493Z,121.80
2022-12-03T02:12:49.212Z,108.65
2022-12-03T02:15:54.184Z,109.22
2022-12-03T02:18:59.391Z,118.93
2022-12-03T02:22:20.774Z,110.15
2022-12-03T02:25:32.018Z,119.68
2022-12-03T02:28:38.071Z,126.95
2022-12-03T02:31:43.930Z,105.85
2022-12-03T02:34:49.925Z,104.82
2022-12-03T02:38:09.467Z,104.15
2022-12-03T02:41:37.974Z,112.75
2022-12-03T02:44:42.855Z,101.05
2022-12-03T02:48:03.593Z,109.28
2022-12-03T02:51:10.670Z,98.95
2022-12-03T02:54:15.683Z,109.07
2022-12-03T02:57:20.788Z,110.72
2022-12-03T03:00:25.498Z,125.13
2022-12-03T03:03:30.836Z,106.40
2022-12-03T03:06:35.847Z,125.45
2022-12-03T03:09:40.793Z,108.03
2022-12-03T03:12:46.204Z,111.97
2022-12-03T03:15:51.013Z,123.10
2022-12-03T03:18:56.109Z,130.98
2022-12-03T03:22:00.927Z,126.85
2022-12-03T03:25:09.396Z,126.75
2022-12-03T03:28:15.471Z,100.45
2022-12-03T03:31:23.344Z,120.40
2022-12-03T03:34:28.396Z,122.85
2022-12-03T03:37:33.621Z,134.23
2022-12-03T03:40:38.629Z,113.90
2022-12-03T03:43:44.893Z,140.13
2022-12-03T03:46:49.809Z,109.53
2022-12-03T03:49:54.818Z,113.25
2022-12-03T03:53:01.303Z,114.63
2022-12-03T03:56:06.485Z,103.78
2022-12-03T03:59:13.425Z,117.28
2022-12-03T04:02:24.575Z,120.38
2022-12-03T04:05:29.445Z,119.32
2022-12-03T04:08:34.242Z,111.47
2022-12-03T04:11:57.791Z,112.95
2022-12-03T04:15:02.853Z,125.32
2022-12-03T04:18:26.417Z,126.38
2022-12-03T04:21:49.913Z,117.13
2022-12-03T04:25:17.785Z,113.35
2022-12-03T04:28:40.819Z,125.18
2022-12-03T04:32:04.927Z,103.53
2022-12-03T04:35:31.489Z,91.15
2022-12-03T04:38:36.578Z,111.43
2022-12-03T04:41:44.644Z,120.88
2022-12-03T04:44:52.995Z,113.82
2022-12-03T04:47:57.948Z,104.72
2022-12-03T04:51:02.756Z,105.85
2022-12-03T04:54:07.505Z,91.82
2022-12-03T04:57:12.503Z,101.70
2022-12-03T05:00:17.712Z,111.28
2022-12-03T05:03:22.729Z,104.35
2022-12-03T05:06:27.505Z,106.90
2022-12-03T05:09:32.322Z,108.72
2022-12-03T05:12:37.178Z,110.47
2022-12-03T05:15:42.403Z,111.32
2022-12-03T05:18:47.344Z,135.40
2022-12-03T05:21:52.405Z,121.15
2022-12-03T05:24:57.065Z,145.98
2022-12-03T05:28:02.323Z,127.93
2022-12-03T05:31:07.517Z,137.77
2022-12-03T05:34:12.311Z,137.80
2022-12-03T05:37:17.483Z,129.75
2022-12-03T05:40:22.274Z,113.18
2022-12-03T05:43:27.516Z,111.60
2022-12-03T05:46:32.909Z,108.40
2022-12-03T05:49:37.770Z,110.28
2022-12-03T05:52:42.531Z,92.97
2022-12-03T05:55:47.489Z,90.63
2022-12-03T05:58:52.467Z,98.82
2022-12-03T06:01:57.372Z,101.35
2022-12-03T06:05:02.398Z,89.82
2022-12-03T06:08:07.342Z,91.78
2022-12-03T06:11:12.053Z,83.38
2022-12-03T06:14:17.124Z,88.55
2022-12-03T06:17:22.049Z,87.00
2022-12-03T06:20:27.042Z,103.93
2022-12-03T06:23:31.986Z,103.45
2022-12-03T06:26:36.667Z,108.80
2022-12-03T06:29:42.657Z,103.32
2022-12-03T06:32:47.371Z,104.88
2022-12-03T06:35:52.372Z,98.38
2022-12-03T06:38:57.663Z,95.53
2022-12-03T06:42:03.104Z,91.00
2022-12-03T06:45:08.608Z,111.18
2022-12-03T06:48:13.438Z,109.88
2022-12-03T06:51:18.240Z,117.03
2022-12-03T06:54:23.257Z,143.52
2022-12-03T06:57:28.338Z,117.65
2022-12-03T07:00:33.205Z,116.13
2022-12-03T07:03:38.409Z,136.07
2022-12-03T07:06:43.702Z,95.78
2022-12-03T07:09:48.688Z,92.13
2022-12-03T07:12:53.808Z,83.15
2022-12-03T07:15:58.673Z,88.97
2022-12-03T07:19:05.573Z,80.53
2022-12-03T07:22:10.736Z,98.05
2022-12-03T07:25:22.637Z,85.35
2022-12-03T07:28:28.170Z,77.18
2022-12-03T07:31:33.418Z,85.47
2022-12-03T07:34:39.387Z,84.65
2022-12-03T07:37:44.226Z,87.60
2022-12-03T07:40:49.293Z,82.78
2022-12-03T07:43:54.201Z,82.18
2022-12-03T07:46:59.436Z,78.70
2022-12-03T07:50:04.903Z,87.03
2022-12-03T07:53:10.027Z,92.20
2022-12-03T07:56:14.848Z,88.13
2022-12-03T07:59:19.686Z,75.53
2022-12-03T08:02:24.510Z,82.20
2022-12-03T08:05:29.776Z,90.25
2022-12-03T08:08:34.856Z,76.82
2022-12-03T08:11:40.441Z,76.93
2022-12-03T08:14:45.513Z,83.05
2022-12-03T08:17:59.396Z,87.88
2022-12-03T08:21:09.057Z,97.82
2022-12-03T08:24:20.826Z,87.32
2022-12-03T08:27:25.695Z,97.60
2022-12-03T08:30:30.711Z,102.43
2022-12-03T08:33:36.930Z,96.38
2022-12-03T08:36:42.217Z,105.25
2022-12-03T08:39:50.493Z,101.70
2022-12-03T08:42:55.475Z,108.65
2022-12-03T08:46:00.555Z,108.95
2022-12-03T08:49:05.516Z,103.50
2022-12-03T08:52:16.551Z,95.40
2022-12-03T08:55:39.561Z,92.00
2022-12-03T08:58:48.193Z,95.72
2022-12-03T09:01:53.769Z,103.93
2022-12-03T09:04:59.476Z,104.93
2022-12-03T09:08:04.449Z,108.65
2022-12-03T09:11:08.973Z,98.03
2022-12-03T09:14:18.480Z,102.97
2022-12-03T09:17:23.865Z,99.55
2022-12-03T09:20:28.703Z,86.47
2022-12-03T09:23:33.521Z,90.68
2022-12-03T09:26:38.391Z,98.40
2022-12-03T09:29:43.308Z,89.20
2022-12-03T09:32:48.070Z,86.38
2022-12-03T09:35:52.982Z,97.60
2022-12-03T09:38:58.216Z,88.72
2022-12-03T09:42:03.568Z,95.30
2022-12-03T09:45:12.261Z,107.47
2022-12-03T09:48:19.230Z,119.80
2022-12-03T09:51:29.726Z,108.32
2022-12-03T09:54:34.897Z,89.45
2022-12-03T09:57:40.156Z,99.20
2022-12-03T10:00:50.634Z,88.30
2022-12-03T10:03:55.754Z,100.40
2022-12-03T10:07:00.763Z,97.70
2022-12-03T10:10:08.479Z,107.50
2022-12-03T10:13:26.764Z,111.55
2022-12-03T10:16:31.631Z,118.70
2022-12-03T10:19:37.554Z,127.20
2022-12-03T10:22:42.374Z,120.82
2022-12-03T10:26:04.920Z,112.90
2022-12-03T10:29:33.701Z,111.47
2022-12-03T10:32:42.229Z,110.13
2022-12-03T10:35:47.439Z,125.50
2022-12-03T10:39:15.702Z,127.50
2022-12-03T10:42:20.509Z,136.75
2022-12-03T10:45:25.376Z,124.20
2022-12-03T10:48:30.206Z,124.03
2022-12-03T10:51:35.686Z,125.30
2022-12-03T10:54:40.865Z,123.30
2022-12-03T10:57:46.364Z,93.75
2022-12-03T11:00:55.413Z,90.05
2022-12-03T11:04:05.836Z,100.00
2022-12-03T11:07:22.025Z,92.70
2022-12-03T11:10:26.877Z,90.82
2022-12-03T11:13:44.716Z,110.93
2022-12-03T11:16:52.577Z,109.72
2022-12-03T11:19:58.475Z,122.95
2022-12-03T11:23:03.454Z,116.28
2022-12-03T11:26:08.610Z,130.18
2022-12-03T11:29:14.684Z,107.05
2022-12-03T11:32:37.999Z,111.85
2022-12-03T11:36:04.489Z,104.43
2022-12-03T11:39:09.321Z,99.72
2022-12-03T11:42:26.400Z,122.40
2022-12-03T11:45:38.080Z,122.13
2022-12-03T11:48:50.789Z,126.05
2022-12-03T11:51:57.283Z,121.55
2022-12-03T11:55:18.051Z,114.50
2022-12-03T11:58:29.251Z,108.88
2022-12-03T12:01:39.154Z,122.82
2022-12-03T12:04:47.044Z,109.88
2022-12-03T12:07:52.740Z,129.63
2022-12-03T12:10:58.482Z,126.00
2022-12-03T12:14:09.268Z,119.30
2022-12-03T12:17:35.015Z,116.20
2022-12-03T12:20:40.408Z,116.22
2022-12-03T12:23:45.305Z,110.60
2022-12-03T12:26:51.608Z,125.97
2022-12-03T12:30:03.839Z,111.95
2022-12-03T12:33:26.136Z,116.22
2022-12-03T12:36:32.074Z,118.28
2022-12-03T12:39:36.953Z,121.88
2022-12-03T12:42:52.349Z,128.35
2022-12-03T12:46:18.551Z,101.00
2022-12-03T12:49:26.888Z,93.85
2022-12-03T12:52:31.759Z,92.75
2022-12-03T12:55:38.459Z,98.55
2022-12-03T12:58:43.497Z,95.22
2022-12-03T13:01:50.447Z,85.57
2022-12-03T13:05:13.619Z,94.07
2022-12-03T13:08:39.631Z,99.03
2022-12-03T13:11:47.184Z,94.07
2022-12-03T13:14:52.729Z,92.55
2022-12-03T13:17:57.949Z,109.60
2022-12-03T13:21:38.418Z,97.72
2022-12-03T13:24:50.824Z,106.38
2022-12-03T13:27:55.861Z,110.22
2022-12-03T13:31:18.700Z,91.88
2022-12-03T13:34:26.645Z,84.85
2022-12-03T13:37:32.115Z,74.55
2022-12-03T13:40:37.991Z,77.65
2022-12-03T13:43:44.592Z,153.45
2022-12-03T13:46:50.277Z,131.00
2022-12-03T13:49:58.906Z,94.25
2022-12-03T13:53:19.120Z,89.43
2022-12-03T13:56:29.050Z,148.05
2022-12-03T13:59:33.921Z,85.75
2022-12-03T14:02:38.975Z,79.65
2022-12-03T14:05:43.804Z,78.65
2022-12-03T14:08:48.896Z,90.32
2022-12-03T14:12:12.355Z,76.20
2022-12-03T14:15:17.413Z,75.90
2022-12-03T14:18:22.460Z,68.78
2022-12-03T14:21:27.690Z,76.32
2022-12-03T14:24:32.616Z,65.45
2022-12-03T14:27:37.338Z,75.20
2022-12-03T14:30:42.093Z,75.57
2022-12-03T14:33:46.983Z,69.82
2022-12-03T14:36:51.853Z,85.68
2022-12-03T14:39:57.285Z,78.70
2022-12-03T14:43:03.230Z,99.53
2022-12-03T14:46:08.136Z,80.45
2022-12-03T14:49:13.060Z,80.40
2022-12-03T14:52:18.592Z,85.20
2022-12-03T14:55:23.323Z,69.75
2022-12-03T14:58:28.218Z,88.30
2022-12-03T15:01:33.404Z,80.32
2022-12-03T15:04:39.706Z,85.60
2022-12-03T15:07:44.923Z,78.68
2022-12-03T15:10:50.023Z,83.80
2022-12-03T15:13:54.880Z,86.63
2022-12-03T15:17:00.110Z,78.30
2022-12-03T15:20:06.033Z,77.40
2022-12-03T15:23:14.198Z,96.78
2022-12-03T15:26:19.596Z,84.03
2022-12-03T15:29:24.334Z,81.20
2022-12-03T15:32:29.083Z,82.85
2022-12-03T15:35:34.136Z,69.80
2022-12-03T15:38:39.252Z,72.93
2022-12-03T15:41:44.179Z,70.85
2022-12-03T15:44:49.068Z,73.18
2022-12-03T15:47:54.124Z,82.93
2022-12-03T15:50:58.937Z,75.32
2022-12-03T15:54:04.019Z,75.78
2022-12-03T15:57:08.996Z,95.55
2022-12-03T16:00:14.551Z,81.45
2022-12-03T16:03:19.830Z,76.18
2022-12-03T16:06:24.700Z,77.78
2022-12-03T16:09:29.733Z,72.85
2022-12-03T16:12:34.566Z,72.30
2022-12-03T16:15:39.643Z,78.88
2022-12-03T16:18:44.226Z,85.90
2022-12-03T16:21:49.000Z,87.00
2022-12-03T16:24:53.930Z,88.50
2022-12-03T16:27:59.138Z,76.45
2022-12-03T16:31:05.095Z,85.32
2022-12-03T16:34:09.966Z,86.57
2022-12-03T16:37:14.677Z,79.65
2022-12-03T16:40:25.148Z,98.10
2022-12-03T16:43:30.161Z,70.35
2022-12-03T16:46:35.283Z,77.80
2022-12-03T16:49:40.081Z,79.63
2022-12-03T16:52:47.128Z,72.05
2022-12-03T16:55:52.190Z,67.25
2022-12-03T16:58:57.201Z,89.32
2022-12-03T17:02:02.205Z,74.25
2022-12-03T17:05:07.340Z,63.40
2022-12-03T17:08:12.476Z,69.90
2022-12-03T17:11:17.900Z,71.78
2022-12-03T17:14:27.291Z,69.38
2022-12-03T17:17:34.620Z,66.68
2022-12-03T17:20:39.577Z,70.80
2022-12-03T17:23:46.217Z,72.40
2022-12-03T17:26:51.488Z,77.57
2022-12-03T17:29:57.499Z,84.15
2022-12-03T17:33:02.281Z,78.18
2022-12-03T17:36:07.737Z,71.05
2022-12-03T17:39:12.522Z,66.32
2022-12-03T17:42:17.386Z,63.35
2022-12-03T17:45:22.455Z,63.15
2022-12-03T17:48:31.282Z,68.68
2022-12-03T17:51:36.565Z,66.43
2022-12-03T17:55:08.309Z,78.53
2022-12-03T17:58:06.940Z,69.05
2022-12-03T18:01:12.224Z,66.10
2022-12-03T18:04:17.678Z,74.97
2022-12-03T18:07:22.679Z,102.68
2022-12-03T18:10:27.542Z,110.95
2022-12-03T18:13:32.448Z,98.22
2022-12-03T18:16:37.481Z,101.18
2022-12-03T18:19:42.384Z,100.00
2022-12-03T18:22:47.195Z,96.47
2022-12-03T18:25:51.919Z,96.22
2022-12-03T18:28:56.638Z,114.35
2022-12-03T18:32:01.835Z,111.47
2022-12-03T18:35:07.175Z,118.97
2022-12-03T18:38:13.343Z,123.00
2022-12-03T18:41:19.458Z,120.22
2022-12-03T18:44:24.858Z,120.68
2022-12-03T18:47:31.023Z,109.40
2022-12-03T18:50:35.735Z,114.97
2022-12-03T18:53:40.315Z,87.63
2022-12-03T18:56:45.140Z,78.93
2022-12-03T18:59:50.017Z,68.00
2022-12-03T19:03:02.954Z,110.80
2022-12-03T19:06:19.790Z,99.57
2022-12-03T19:09:24.967Z,73.97
2022-12-03T19:12:31.065Z,78.90
2022-12-03T19:15:39.490Z,82.60
2022-12-03T19:18:44.751Z,71.63
2022-12-03T19:21:49.780Z,92.35
2022-12-03T19:24:54.570Z,100.72
2022-12-03T19:27:59.315Z,97.10
2022-12-03T19:31:22.279Z,91.88
2022-12-03T19:34:27.345Z,89.72
2022-12-03T19:37:33.737Z,101.28
2022-12-03T19:40:38.985Z,104.75
2022-12-03T19:43:52.599Z,100.10
2022-12-03T19:46:57.966Z,114.05
2022-12-03T19:50:04.492Z,70.78
2022-12-03T19:53:09.644Z,73.68
2022-12-03T19:56:19.853Z,61.92
2022-12-03T19:59:25.088Z,70.53
2022-12-03T20:02:29.909Z,74.72
2022-12-03T20:05:37.693Z,88.72
2022-12-03T20:08:42.271Z,89.05
2022-12-03T20:11:50.838Z,119.82
2022-12-03T20:14:55.950Z,115.85
2022-12-03T20:18:00.641Z,99.05
2022-12-03T20:21:06.407Z,103.05
2022-12-03T20:24:17.878Z,108.15
2022-12-03T20:27:23.126Z,96.75
2022-12-03T20:30:28.239Z,99.18
2022-12-03T20:33:33.528Z,94.10
2022-12-03T20:36:39.284Z,85.10
2022-12-03T20:39:44.205Z,78.75
2022-12-03T20:42:48.824Z,89.13
2022-12-03T20:45:58.050Z,98.28
2022-12-03T20:49:06.195Z,74.55
2022-12-03T20:52:11.088Z,72.28
2022-12-03T20:55:15.763Z,71.50
2022-12-03T20:58:20.635Z,75.00
2022-12-03T21:01:27.410Z,77.43
2022-12-03T21:04:32.532Z,75.68
2022-12-03T21:07:37.449Z,73.53
2022-12-03T21:10:45.650Z,79.97
2022-12-03T21:13:51.963Z,65.85
2022-12-03T21:17:08.286Z,79.60
2022-12-03T21:20:16.666Z,80.20
2022-12-03T21:23:25.591Z,79.20
2022-12-03T21:26:30.240Z,89.93
2022-12-03T21:29:35.082Z,115.28
2022-12-03T21:32:40.080Z,133.55
2022-12-03T21:35:45.272Z,135.77
2022-12-03T21:38:50.680Z,85.38
2022-12-03T21:42:19.349Z,92.25
2022-12-03T21:45:20.531Z,94.97
2022-12-03T21:48:25.196Z,77.90
2022-12-03T21:51:29.904Z,71.95
2022-12-03T21:54:34.567Z,68.10
2022-12-03T21:57:39.624Z,64.25
2022-12-03T22:00:44.423Z,55.72
2022-12-03T22:03:49.683Z,69.45
2022-12-03T22:06:54.965Z,56.25
2022-12-03T22:09:59.627Z,71.70
2022-12-03T22:13:04.513Z,56.33
2022-12-03T22:16:15.847Z,64.88
2022-12-03T22:19:24.680Z,70.57
2022-12-03T22:22:29.530Z,72.80
2022-12-03T22:25:34.410Z,66.75
2022-12-03T22:28:43.378Z,56.25
2022-12-03T22:31:48.651Z,77.55
2022-12-03T22:34:53.588Z,74.63
2022-12-03T22:37:58.526Z,74.60
2022-12-03T22:41:08.535Z,64.13
2022-12-03T22:44:13.309Z,67.55
2022-12-03T22:47:18.173Z,67.90
2022-12-03T22:50:23.182Z,78.93
2022-12-03T22:53:28.068Z,72.25
2022-12-03T22:56:33.177Z,78.57
2022-12-03T22:59:38.224Z,72.30
2022-12-03T23:02:43.054Z,77.72
2022-12-03T23:05:47.843Z,69.60
2022-12-03T23:08:52.991Z,70.85
2022-12-03T23:11:58.088Z,77.50
2022-12-03T23:15:03.693Z,68.47
2022-12-03T23:18:08.760Z,75.22
2022-12-03T23:21:30.134Z,92.43
2022-12-03T23:24:36.475Z,114.57
2022-12-03T23:27:42.513Z,97.95
2022-12-03T23:30:47.379Z,102.28
2022-12-03T23:33:53.400Z,109.93
2022-12-03T23:36:57.961Z,107.85
2022-12-03T23:40:03.242Z,119.53
2022-12-03T23:43:08.296Z,130.50
2022-12-03T23:46:21.956Z,111.20
2022-12-03T23:49:28.082Z,126.78
2022-12-03T23:52:35.993Z,112.20
2022-12-03T23:55:41.384Z,187.63
2022-12-03T23:58:46.767Z,132.73
